Time;durP1;ratioP1;P1;durP2;ratioP2;P2;SDS_P1;SDS_P2;PMS_P1;PMS_P2;Temp;Humidity;BMP_temperature;BMP_pressure;BME280_temperature;BME280_humidity;BME280_pressure;Samples;Min_cycle;Max_cycle;Signal;HPM_P1;HPM_P2
2021/07/13 00:00:11;;;;;;;5.00;3.72;;;22.50;99.90;;;;;;4127706;28;20097;-71
2021/07/13 00:02:12;;;;;;;5.18;4.57;;;22.40;99.90;;;;;;4140243;28;20073;-71
2021/07/13 00:04:13;;;;;;;7.40;3.92;;;22.50;99.90;;;;;;4137220;28;20074;-70
2021/07/13 00:06:14;;;;;;;5.25;3.40;;;22.50;99.90;;;;;;4135750;28;20058;-71
2021/07/13 00:08:14;;;;;;;5.80;3.92;;;22.50;99.90;;;;;;4137090;28;20042;-71
2021/07/13 00:10:21;;;;;;;7.60;3.97;;;22.50;99.90;;;;;;4136811;28;20047;-70
2021/07/13 00:12:22;;;;;;;5.13;3.70;;;22.50;99.90;;;;;;4137803;28;20038;-71
2021/07/13 00:14:23;;;;;;;4.03;2.85;;;22.50;99.90;;;;;;4136425;28;20044;-71
2021/07/13 00:16:24;;;;;;;3.60;3.10;;;22.50;99.90;;;;;;4131980;28;20042;-71
2021/07/13 00:18:24;;;;;;;4.40;3.42;;;22.50;99.90;;;;;;4138206;28;20050;-71
2021/07/13 00:20:26;;;;;;;5.15;3.58;;;22.50;99.90;;;;;;4134270;28;20108;-71
2021/07/13 00:22:27;;;;;;;4.28;3.47;;;22.50;99.90;;;;;;4135447;28;20044;-71
2021/07/13 00:24:27;;;;;;;4.22;3.70;;;22.50;99.90;;;;;;4137925;28;20073;-71
2021/07/13 00:26:28;;;;;;;10.80;4.70;;;22.60;99.90;;;;;;4140866;28;20035;-71
2021/07/13 00:28:29;;;;;;;6.40;4.57;;;22.60;99.90;;;;;;4137888;28;20502;-71
2021/07/13 00:30:29;;;;;;;4.78;4.28;;;22.60;99.90;;;;;;4140646;28;20065;-71
2021/07/13 00:32:30;;;;;;;5.68;4.38;;;22.60;99.90;;;;;;4133577;28;20038;-71
2021/07/13 00:34:30;;;;;;;5.35;4.10;;;22.60;99.90;;;;;;4137749;28;20056;-71
2021/07/13 00:36:31;;;;;;;5.68;3.60;;;22.60;99.90;;;;;;4130702;28;20059;-71
2021/07/13 00:38:32;;;;;;;6.10;4.10;;;22.50;99.90;;;;;;4139627;28;20546;-70
2021/07/13 00:40:32;;;;;;;5.13;4.15;;;22.50;99.90;;;;;;4140580;28;20030;-71
2021/07/13 00:42:33;;;;;;;10.70;5.40;;;22.40;99.90;;;;;;4136809;28;20529;-71
2021/07/13 00:44:34;;;;;;;5.97;4.38;;;22.40;99.90;;;;;;4134775;28;20434;-71
2021/07/13 00:46:46;;;;;;;5.25;4.13;;;22.30;99.90;;;;;;4140057;28;20042;-71
2021/07/13 00:48:47;;;;;;;9.00;4.30;;;22.30;99.90;;;;;;4134844;28;20042;-71
2021/07/13 00:50:48;;;;;;;5.68;4.55;;;22.30;99.90;;;;;;4140035;28;20034;-71
2021/07/13 00:52:49;;;;;;;5.50;4.70;;;22.30;99.90;;;;;;4142806;28;20034;-71
2021/07/13 00:54:50;;;;;;;6.68;5.35;;;22.30;99.90;;;;;;4138685;28;20030;-71
2021/07/13 00:56:52;;;;;;;8.68;6.47;;;22.30;99.90;;;;;;4136650;28;20792;-71
2021/07/13 00:58:52;;;;;;;8.48;5.00;;;22.20;99.90;;;;;;4138054;28;20068;-71
2021/07/13 01:00:53;;;;;;;5.30;4.80;;;22.20;99.90;;;;;;4133379;28;20026;-70
2021/07/13 01:02:58;;;;;;;5.88;4.82;;;22.20;99.90;;;;;;4134695;28;20026;-70
2021/07/13 01:05:00;;;;;;;7.85;5.03;;;22.20;99.90;;;;;;4135642;28;20093;-70
2021/07/13 01:07:04;;;;;;;;;;;22.20;99.90;;;;;;4136997;28;20461;-70
2021/07/13 01:09:11;;;;;;;6.78;5.05;;;22.20;99.90;;;;;;4133401;28;19913;-71
2021/07/13 01:11:30;;;;;;;5.72;4.55;;;22.20;99.90;;;;;;4138005;28;20038;-70
2021/07/13 01:13:38;;;;;;;6.35;5.20;;;22.20;99.90;;;;;;4122438;28;20030;-71
2021/07/13 01:15:45;;;;;;;9.57;5.72;;;22.30;99.90;;;;;;4115205;28;20154;-71
2021/07/13 01:17:58;;;;;;;7.63;5.72;;;22.30;99.90;;;;;;4138437;28;20062;-71
2021/07/13 01:20:20;;;;;;;5.75;4.53;;;22.30;99.90;;;;;;4142063;28;20037;-71
2021/07/13 01:22:27;;;;;;;5.88;4.70;;;22.30;99.90;;;;;;4142360;28;20050;-71
2021/07/13 01:24:47;;;;;;;6.78;4.28;;;22.30;99.90;;;;;;4137580;28;20474;-71
2021/07/13 01:27:04;;;;;;;5.40;4.75;;;22.30;99.90;;;;;;4136412;28;20041;-71
2021/07/13 01:29:10;;;;;;;5.25;4.38;;;22.30;99.90;;;;;;4139135;28;20049;-71
2021/07/13 01:31:18;;;;;;;6.85;5.30;;;22.30;99.90;;;;;;4138711;28;20645;-71
2021/07/13 01:33:22;;;;;;;10.07;5.60;;;22.30;99.90;;;;;;4137591;28;20041;-71
2021/07/13 01:35:27;;;;;;;9.05;6.15;;;22.30;99.90;;;;;;4133254;28;20046;-71
2021/07/13 01:37:30;;;;;;;7.43;6.30;;;22.30;99.90;;;;;;4135328;28;20045;-71
2021/07/13 01:39:31;;;;;;;7.53;6.10;;;22.20;99.90;;;;;;4141704;28;20038;-70
2021/07/13 01:41:33;;;;;;;10.20;6.07;;;22.20;99.90;;;;;;4131034;28;20046;-71
2021/07/13 01:43:42;;;;;;;8.23;6.40;;;22.20;99.90;;;;;;4140778;28;20034;-70
2021/07/13 01:45:44;;;;;;;9.77;7.60;;;22.10;99.90;;;;;;4134096;28;20048;-71
2021/07/13 01:47:46;;;;;;;11.63;8.15;;;22.10;99.90;;;;;;4137671;28;20501;-71
2021/07/13 01:49:47;;;;;;;10.20;8.75;;;22.10;99.90;;;;;;4136406;28;20045;-70
2021/07/13 01:51:50;;;;;;;11.70;7.90;;;22.10;99.90;;;;;;4140084;28;20056;-70
2021/07/13 01:53:52;;;;;;;12.27;8.10;;;22.10;99.90;;;;;;4138424;28;20054;-71
2021/07/13 01:55:55;;;;;;;10.07;7.75;;;22.10;99.90;;;;;;4142280;28;20034;-71
2021/07/13 01:57:55;;;;;;;10.93;7.97;;;22.10;99.90;;;;;;4134862;28;20132;-71
2021/07/13 01:59:58;;;;;;;8.40;6.90;;;22.20;99.90;;;;;;4140121;28;20788;-71
2021/07/13 02:02:01;;;;;;;8.25;6.82;;;22.20;99.90;;;;;;4139531;28;20049;-71
2021/07/13 02:04:04;;;;;;;7.60;6.20;;;22.20;99.90;;;;;;4135383;28;20046;-70
2021/07/13 02:06:06;;;;;;;7.97;7.07;;;22.20;99.90;;;;;;4133006;28;20053;-71
2021/07/13 02:08:08;;;;;;;7.28;6.47;;;22.20;99.90;;;;;;4137216;28;20395;-71
2021/07/13 02:10:10;;;;;;;7.90;6.40;;;22.20;99.90;;;;;;4137646;28;20430;-71
2021/07/13 02:12:11;;;;;;;8.45;6.97;;;22.20;99.90;;;;;;4141225;28;20413;-71
2021/07/13 02:14:13;;;;;;;9.07;6.43;;;22.30;99.90;;;;;;4142242;28;20127;-71
2021/07/13 02:16:14;;;;;;;10.02;7.00;;;22.20;99.90;;;;;;4133471;28;20048;-71
2021/07/13 02:18:14;;;;;;;9.40;7.72;;;22.30;99.90;;;;;;4123268;28;20125;-71
2021/07/13 02:20:15;;;;;;;11.60;9.00;;;22.20;99.90;;;;;;4137438;28;20046;-71
2021/07/13 02:22:16;;;;;;;9.35;8.20;;;22.20;99.90;;;;;;4135675;28;20073;-71
2021/07/13 02:24:17;;;;;;;12.15;8.52;;;22.20;99.90;;;;;;4136126;28;20037;-71
2021/07/13 02:26:22;;;;;;;9.27;7.88;;;22.20;99.90;;;;;;4130331;28;20105;-71
2021/07/13 02:28:39;;;;;;;9.73;8.27;;;22.20;99.90;;;;;;4132408;28;20136;-71
2021/07/13 02:30:43;;;;;;;10.35;8.13;;;22.10;99.90;;;;;;4155508;28;20041;-71
2021/07/13 02:32:46;;;;;;;10.10;9.00;;;22.10;99.90;;;;;;4137382;28;20037;-71
2021/07/13 02:34:49;;;;;;;11.77;8.85;;;22.10;99.90;;;;;;4140038;28;20030;-71
2021/07/13 02:36:52;;;;;;;12.10;8.80;;;22.00;99.90;;;;;;4136156;28;20104;-71
2021/07/13 02:38:54;;;;;;;10.30;7.90;;;22.00;99.90;;;;;;4138189;28;20042;-71
2021/07/13 02:40:56;;;;;;;11.20;7.95;;;21.90;99.90;;;;;;4140972;28;20395;-71
2021/07/13 02:42:57;;;;;;;11.05;8.23;;;21.80;99.90;;;;;;4135958;28;20046;-71
2021/07/13 02:45:00;;;;;;;8.82;7.07;;;21.80;99.90;;;;;;4131325;28;20034;-71
2021/07/13 02:47:10;;;;;;;10.45;7.97;;;21.80;99.90;;;;;;4136913;28;20064;-71
2021/07/13 02:49:23;;;;;;;8.93;6.97;;;21.80;99.90;;;;;;4133533;28;20125;-71
2021/07/13 02:51:26;;;;;;;11.23;9.32;;;21.80;99.90;;;;;;4136430;28;20378;-71
2021/07/13 02:53:29;;;;;;;10.57;7.93;;;21.80;99.90;;;;;;4136752;28;20034;-71
2021/07/13 02:55:32;;;;;;;10.52;8.68;;;21.80;99.90;;;;;;4138029;28;20548;-71
2021/07/13 02:57:34;;;;;;;10.27;7.78;;;21.80;99.90;;;;;;4131446;28;20040;-71
2021/07/13 02:59:37;;;;;;;10.38;8.23;;;21.80;99.90;;;;;;4136159;28;20483;-71
2021/07/13 03:01:38;;;;;;;10.45;8.10;;;21.80;99.90;;;;;;4136587;28;20128;-71
2021/07/13 03:03:41;;;;;;;9.93;8.60;;;21.80;99.90;;;;;;4133472;28;20645;-71
2021/07/13 03:05:42;;;;;;;9.70;8.07;;;21.70;99.90;;;;;;4135687;28;20046;-71
2021/07/13 03:07:45;;;;;;;10.45;8.40;;;21.70;99.90;;;;;;4134084;28;20092;-71
2021/07/13 03:09:48;;;;;;;8.35;7.45;;;21.70;99.90;;;;;;4133556;28;20038;-71
2021/07/13 03:11:49;;;;;;;9.25;7.93;;;21.80;99.90;;;;;;4132348;28;20505;-71
2021/07/13 03:13:50;;;;;;;11.88;7.57;;;21.80;99.90;;;;;;4132248;28;20034;-71
2021/07/13 03:15:51;;;;;;;9.75;8.18;;;21.70;99.90;;;;;;4134304;28;20041;-71
2021/07/13 03:17:53;;;;;;;9.52;7.28;;;21.70;99.90;;;;;;4133201;28;20057;-71
2021/07/13 03:19:54;;;;;;;9.68;8.02;;;21.70;99.90;;;;;;4138163;28;20045;-71
2021/07/13 03:21:56;;;;;;;8.15;7.15;;;21.70;99.90;;;;;;4140475;28;20034;-71
2021/07/13 03:24:00;;;;;;;9.93;7.95;;;21.70;99.90;;;;;;4134259;28;20043;-72
2021/07/13 03:26:02;;;;;;;10.77;8.00;;;21.70;99.90;;;;;;4137453;28;20030;-72
2021/07/13 03:28:04;;;;;;;9.73;8.27;;;21.70;99.90;;;;;;4134003;28;20364;-72
2021/07/13 03:30:07;;;;;;;10.52;8.38;;;21.70;99.90;;;;;;4135483;28;20050;-71
2021/07/13 03:32:08;;;;;;;11.48;8.27;;;21.70;99.90;;;;;;4136500;28;20080;-71
2021/07/13 03:34:10;;;;;;;8.80;7.80;;;21.60;99.90;;;;;;4138539;28;20486;-71
2021/07/13 03:36:11;;;;;;;10.82;8.02;;;21.60;99.90;;;;;;4135816;28;20108;-71
2021/07/13 03:38:11;;;;;;;14.63;7.97;;;21.60;99.90;;;;;;4139488;28;20115;-71
2021/07/13 03:40:14;;;;;;;13.07;8.57;;;21.50;99.90;;;;;;4127826;28;20045;-71
2021/07/13 03:42:15;;;;;;;8.27;7.30;;;21.50;99.90;;;;;;4136822;28;20050;-71
2021/07/13 03:44:16;;;;;;;10.55;7.82;;;21.60;99.90;;;;;;4140776;28;20662;-71
2021/07/13 03:46:17;;;;;;;10.45;8.15;;;21.60;99.90;;;;;;4138997;28;20042;-71
2021/07/13 03:48:19;;;;;;;10.90;8.68;;;21.50;99.90;;;;;;4119213;28;20045;-72
2021/07/13 03:50:21;;;;;;;;;;;21.60;99.90;;;;;;4138093;28;20030;-71
2021/07/13 03:52:22;;;;;;;10.68;8.00;;;21.50;99.90;;;;;;4136426;28;19913;-72
2021/07/13 03:54:23;;;;;;;9.93;8.27;;;21.60;99.90;;;;;;4139848;28;20045;-72
2021/07/13 03:56:23;;;;;;;14.52;8.55;;;21.50;99.90;;;;;;4135044;28;20568;-71
2021/07/13 03:58:24;;;;;;;13.65;8.85;;;21.50;99.90;;;;;;4139644;28;20689;-72
2021/07/13 04:00:27;;;;;;;17.10;10.75;;;21.50;99.90;;;;;;4143778;28;20033;-72
2021/07/13 04:02:28;;;;;;;12.23;10.05;;;21.50;99.90;;;;;;4141080;28;20036;-72
2021/07/13 04:04:28;;;;;;;12.55;9.57;;;21.50;99.90;;;;;;4143938;28;20034;-71
2021/07/13 04:06:29;;;;;;;14.88;9.55;;;21.40;99.90;;;;;;4139582;28;20046;-72
2021/07/13 04:08:30;;;;;;;13.55;9.50;;;21.40;99.90;;;;;;4142318;28;20034;-72
2021/07/13 04:10:30;;;;;;;13.57;10.15;;;21.40;99.90;;;;;;4126058;28;20054;-71
2021/07/13 04:12:31;;;;;;;13.32;9.75;;;21.40;99.90;;;;;;4141552;28;20068;-71
2021/07/13 04:14:31;;;;;;;14.32;9.75;;;21.40;99.90;;;;;;4143700;28;20038;-71
2021/07/13 04:16:34;;;;;;;16.63;12.07;;;21.40;99.90;;;;;;4144409;28;20485;-71
2021/07/13 04:18:34;;;;;;;14.55;9.93;;;21.30;99.90;;;;;;4138515;28;20398;-71
2021/07/13 04:20:35;;;;;;;12.98;9.52;;;21.30;99.90;;;;;;4138903;28;20032;-72
2021/07/13 04:22:36;;;;;;;14.07;11.23;;;21.30;99.90;;;;;;4142081;28;20044;-71
2021/07/13 04:24:36;;;;;;;18.88;13.35;;;21.20;99.90;;;;;;4139451;28;20132;-72
2021/07/13 04:26:37;;;;;;;14.85;11.63;;;21.20;99.90;;;;;;4141082;28;20390;-71
2021/07/13 04:28:38;;;;;;;15.27;11.32;;;21.10;99.90;;;;;;4139052;28;20030;-71
2021/07/13 04:30:38;;;;;;;16.80;11.13;;;21.00;99.90;;;;;;4142715;28;20038;-71
2021/07/13 04:32:39;;;;;;;17.52;11.32;;;20.90;99.90;;;;;;4138807;28;20046;-72
2021/07/13 04:34:40;;;;;;;17.08;11.93;;;20.90;99.90;;;;;;4140571;28;20034;-71
2021/07/13 04:36:41;;;;;;;16.98;13.27;;;20.90;99.90;;;;;;4139871;28;20421;-72
2021/07/13 04:38:42;;;;;;;17.25;12.23;;;20.80;99.90;;;;;;4141337;28;20037;-72
2021/07/13 04:40:42;;;;;;;18.25;13.18;;;20.80;99.90;;;;;;4136891;28;20034;-72
2021/07/13 04:42:43;;;;;;;20.45;13.70;;;20.70;99.90;;;;;;4138520;28;20968;-72
2021/07/13 04:44:44;;;;;;;15.52;11.93;;;20.60;99.90;;;;;;4140974;28;20434;-72
2021/07/13 04:46:44;;;;;;;17.00;11.93;;;20.60;99.90;;;;;;4136924;28;20065;-71
2021/07/13 04:48:45;;;;;;;16.58;11.77;;;20.60;99.90;;;;;;4121981;28;20039;-72
2021/07/13 04:50:46;;;;;;;14.10;10.18;;;20.60;99.90;;;;;;4140001;28;20113;-72
2021/07/13 04:52:46;;;;;;;12.75;9.93;;;20.60;99.90;;;;;;4133474;28;20057;-72
2021/07/13 04:54:47;;;;;;;12.82;9.98;;;20.60;99.90;;;;;;4130993;28;20096;-71
2021/07/13 04:56:48;;;;;;;12.73;9.25;;;20.60;99.90;;;;;;4135149;28;20034;-71
2021/07/13 04:58:48;;;;;;;12.07;8.85;;;20.60;99.90;;;;;;4137025;28;20104;-72
2021/07/13 05:00:49;;;;;;;15.18;11.57;;;20.60;99.90;;;;;;4131368;28;20129;-72
2021/07/13 05:02:50;;;;;;;11.93;9.45;;;20.60;99.90;;;;;;4136549;28;20069;-71
2021/07/13 05:04:50;;;;;;;12.40;9.60;;;20.60;99.90;;;;;;4138423;28;20045;-72
2021/07/13 05:06:51;;;;;;;12.55;9.13;;;20.70;99.90;;;;;;4134549;28;20057;-71
2021/07/13 05:08:55;;;;;;;16.75;9.13;;;20.70;99.90;;;;;;4134157;28;20046;-72
2021/07/13 05:10:56;;;;;;;10.15;8.52;;;20.70;99.90;;;;;;4142052;28;20040;-72
2021/07/13 05:12:57;;;;;;;10.77;8.48;;;20.70;99.90;;;;;;4132888;28;20050;-72
2021/07/13 05:14:57;;;;;;;13.18;9.27;;;20.80;99.90;;;;;;4137792;28;20046;-72
2021/07/13 05:16:58;;;;;;;10.90;8.68;;;20.80;99.90;;;;;;4140786;28;21419;-73
2021/07/13 05:19:00;;;;;;;10.60;8.48;;;20.80;99.90;;;;;;4139068;28;20030;-72
2021/07/13 05:21:04;;;;;;;9.70;8.30;;;20.90;99.90;;;;;;4140065;28;20101;-73
2021/07/13 05:23:08;;;;;;;12.27;8.20;;;20.80;99.90;;;;;;4130899;28;20058;-72
2021/07/13 05:25:10;;;;;;;11.02;8.82;;;20.90;99.90;;;;;;4137299;28;20050;-73
2021/07/13 05:27:13;;;;;;;10.27;8.45;;;20.90;99.90;;;;;;4135954;28;20038;-72
2021/07/13 05:29:14;;;;;;;12.70;9.50;;;20.80;99.90;;;;;;4141685;28;20129;-72
2021/07/13 05:31:15;;;;;;;11.85;9.07;;;20.80;99.90;;;;;;4139155;28;20038;-72
2021/07/13 05:33:16;;;;;;;10.55;8.63;;;20.70;99.90;;;;;;4131644;28;20069;-72
2021/07/13 05:35:17;;;;;;;12.80;8.70;;;20.70;99.90;;;;;;4141973;28;20153;-72
2021/07/13 05:37:17;;;;;;;13.20;9.68;;;20.70;99.90;;;;;;4136866;28;20434;-72
2021/07/13 05:39:18;;;;;;;10.55;8.55;;;20.60;99.90;;;;;;4138611;28;20045;-73
2021/07/13 05:41:23;;;;;;;11.23;8.85;;;20.60;99.90;;;;;;4139309;28;20096;-74
2021/07/13 05:43:23;;;;;;;14.70;10.30;;;20.70;99.90;;;;;;4141250;28;20049;-73
2021/07/13 05:45:24;;;;;;;13.85;10.57;;;20.70;99.90;;;;;;4137788;28;20030;-75
2021/07/13 05:47:25;;;;;;;13.50;10.13;;;20.60;99.90;;;;;;4142202;28;20113;-76
2021/07/13 05:49:26;;;;;;;13.68;10.15;;;20.50;99.90;;;;;;4130596;28;20046;-76
2021/07/13 05:51:27;;;;;;;11.82;9.25;;;20.40;99.90;;;;;;4137260;28;20540;-75
2021/07/13 05:53:28;;;;;;;14.05;9.23;;;20.40;99.90;;;;;;4140330;28;20169;-76
2021/07/13 05:55:28;;;;;;;14.77;9.40;;;20.40;99.90;;;;;;4137643;28;20077;-76
2021/07/13 05:57:29;;;;;;;16.90;9.98;;;20.30;99.90;;;;;;4116219;28;20039;-76
2021/07/13 05:59:30;;;;;;;11.93;8.30;;;20.40;99.90;;;;;;4139588;28;20038;-76
2021/07/13 06:01:30;;;;;;;14.45;9.65;;;20.30;99.90;;;;;;4134213;28;20030;-76
2021/07/13 06:03:31;;;;;;;13.57;9.40;;;20.40;99.90;;;;;;4133215;28;20714;-75
2021/07/13 06:05:32;;;;;;;15.02;10.63;;;20.30;99.90;;;;;;4135433;28;20041;-75
2021/07/13 06:07:32;;;;;;;12.82;9.93;;;20.20;99.90;;;;;;4138908;28;20045;-75
2021/07/13 06:09:33;;;;;;;12.38;9.13;;;20.10;99.90;;;;;;4135696;28;20038;-75
2021/07/13 06:11:34;;;;;;;16.63;9.93;;;20.10;99.90;;;;;;4138978;28;20057;-76
2021/07/13 06:13:34;;;;;;;15.32;10.45;;;20.10;99.90;;;;;;4135271;28;20081;-75
2021/07/13 06:15:35;;;;;;;12.75;9.90;;;20.00;99.90;;;;;;4140492;28;20041;-75
2021/07/13 06:17:36;;;;;;;12.50;8.75;;;20.00;99.90;;;;;;4137401;28;20141;-75
2021/07/13 06:19:36;;;;;;;11.73;9.32;;;20.00;99.90;;;;;;4133606;28;20547;-75
2021/07/13 06:21:37;;;;;;;10.00;7.68;;;20.00;99.90;;;;;;4140240;28;20038;-75
2021/07/13 06:23:37;;;;;;;12.20;8.68;;;20.00;99.90;;;;;;4138695;28;20041;-75
2021/07/13 06:25:38;;;;;;;10.07;7.65;;;20.00;99.90;;;;;;4137602;28;20097;-75
2021/07/13 06:27:40;;;;;;;11.25;9.10;;;20.00;99.90;;;;;;4141450;28;20042;-75
2021/07/13 06:29:41;;;;;;;9.75;7.85;;;20.00;99.90;;;;;;4138500;28;20038;-75
2021/07/13 06:31:41;;;;;;;9.15;7.03;;;19.90;99.90;;;;;;4137524;28;20506;-75
2021/07/13 06:33:42;;;;;;;11.85;8.18;;;19.90;99.90;;;;;;4137155;28;20686;-75
2021/07/13 06:35:45;;;;;;;8.90;6.85;;;20.00;99.90;;;;;;4134812;28;20061;-75
2021/07/13 06:37:46;;;;;;;11.73;8.32;;;20.00;99.90;;;;;;4138014;28;20080;-75
2021/07/13 06:39:46;;;;;;;11.55;7.50;;;19.90;99.90;;;;;;4137810;28;20057;-74
2021/07/13 06:41:47;;;;;;;11.57;7.40;;;19.90;99.90;;;;;;4119172;28;20117;-74
2021/07/13 06:43:48;;;;;;;10.75;7.53;;;19.90;99.90;;;;;;4137544;28;20113;-75
2021/07/13 06:45:48;;;;;;;8.38;6.20;;;19.90;99.90;;;;;;4137106;28;20096;-74
2021/07/13 06:47:54;;;;;;;7.97;5.97;;;19.90;99.90;;;;;;4136810;28;20470;-74
2021/07/13 06:49:55;;;;;;;7.18;6.38;;;20.00;99.90;;;;;;4127336;28;20038;-75
2021/07/13 06:51:57;;;;;;;10.98;6.68;;;20.00;99.90;;;;;;4138036;28;20049;-75
2021/07/13 06:53:57;;;;;;;6.22;5.53;;;19.90;99.90;;;;;;4136250;28;20501;-74
2021/07/13 06:55:58;;;;;;;6.20;5.60;;;20.00;99.90;;;;;;4135637;28;20030;-75
2021/07/13 06:57:58;;;;;;;6.38;5.07;;;20.00;99.90;;;;;;4136098;28;20498;-75
2021/07/13 06:59:59;;;;;;;5.60;5.00;;;20.00;99.90;;;;;;4135322;28;20037;-75
2021/07/13 07:02:01;;;;;;;6.60;5.35;;;20.00;99.90;;;;;;4136446;28;20034;-75
2021/07/13 07:04:04;;;;;;;5.57;4.97;;;20.00;99.90;;;;;;4133148;28;20193;-75
2021/07/13 07:06:04;;;;;;;;;;;20.00;99.90;;;;;;4135138;28;20034;-75
2021/07/13 07:08:05;;;;;;;7.13;5.32;;;20.00;99.90;;;;;;4137189;28;20457;-75
2021/07/13 07:10:07;;;;;;;7.68;5.95;;;20.00;99.90;;;;;;4136526;28;20053;-74
2021/07/13 07:12:08;;;;;;;6.65;5.72;;;20.00;99.90;;;;;;4137009;28;20129;-75
2021/07/13 07:14:09;;;;;;;6.53;5.43;;;19.90;99.90;;;;;;4134786;28;20056;-74
2021/07/13 07:16:09;;;;;;;8.25;6.65;;;20.00;99.90;;;;;;4135879;28;20050;-74
2021/07/13 07:18:10;;;;;;;6.85;5.40;;;20.00;99.90;;;;;;4136988;28;20093;-75
2021/07/13 07:20:11;;;;;;;7.38;4.97;;;20.00;99.90;;;;;;4136639;28;20785;-74
2021/07/13 07:22:12;;;;;;;6.55;4.90;;;20.00;99.90;;;;;;4133402;28;20045;-75
2021/07/13 07:24:12;;;;;;;6.28;5.60;;;20.10;99.90;;;;;;4135503;28;21273;-74
2021/07/13 07:26:13;;;;;;;7.20;5.55;;;20.10;99.90;;;;;;4136683;28;20576;-74
2021/07/13 07:28:15;;;;;;;7.22;5.78;;;20.10;99.90;;;;;;4138130;28;20430;-74
2021/07/13 07:30:17;;;;;;;9.82;6.28;;;20.10;99.90;;;;;;4135242;28;20030;-75
2021/07/13 07:32:17;;;;;;;8.70;5.90;;;20.10;99.90;;;;;;4136937;28;20057;-74
2021/07/13 07:34:19;;;;;;;6.13;5.18;;;20.20;99.90;;;;;;4134735;28;20045;-74
2021/07/13 07:36:22;;;;;;;7.28;5.88;;;20.20;99.90;;;;;;4151740;28;20029;-74
2021/07/13 07:38:23;;;;;;;9.10;6.43;;;20.20;99.90;;;;;;4153759;28;20437;-74
2021/07/13 07:40:24;;;;;;;7.32;6.40;;;20.20;99.90;;;;;;4133383;28;20034;-75
2021/07/13 07:42:25;;;;;;;10.05;6.38;;;20.20;99.90;;;;;;4134334;28;20378;-75
2021/07/13 07:44:25;;;;;;;8.90;6.90;;;20.20;99.90;;;;;;4137048;28;20109;-74
2021/07/13 07:46:26;;;;;;;11.63;6.93;;;20.20;99.90;;;;;;4117951;28;20533;-75
2021/07/13 07:48:27;;;;;;;8.32;5.93;;;20.30;99.90;;;;;;4133521;28;20126;-74
2021/07/13 07:50:27;;;;;;;9.00;5.80;;;20.30;99.90;;;;;;4135190;28;20033;-75
2021/07/13 07:52:28;;;;;;;8.63;6.95;;;20.40;99.90;;;;;;4131592;28;20034;-75
2021/07/13 07:54:29;;;;;;;9.23;7.55;;;20.40;99.90;;;;;;4132369;28;20080;-75
2021/07/13 07:56:30;;;;;;;8.60;7.28;;;20.30;99.90;;;;;;4136133;28;20040;-74
2021/07/13 07:58:30;;;;;;;11.55;8.20;;;20.30;99.90;;;;;;4135618;28;20038;-75
2021/07/13 08:00:31;;;;;;;11.52;7.65;;;20.40;99.90;;;;;;4130788;28;20106;-75
2021/07/13 08:02:31;;;;;;;10.52;7.03;;;20.40;99.90;;;;;;4133226;28;20045;-75
2021/07/13 08:04:33;;;;;;;11.05;8.68;;;20.30;99.90;;;;;;4129444;28;20056;-75
2021/07/13 08:06:34;;;;;;;9.38;8.02;;;20.40;99.90;;;;;;4132879;28;20156;-75
2021/07/13 08:08:35;;;;;;;10.90;8.00;;;20.40;99.90;;;;;;4132877;28;20622;-76
2021/07/13 08:10:36;;;;;;;11.32;8.77;;;20.40;99.90;;;;;;4132941;28;20478;-76
2021/07/13 08:12:38;;;;;;;9.80;8.27;;;20.40;99.90;;;;;;4134786;28;20042;-76
2021/07/13 08:14:39;;;;;;;11.63;7.72;;;20.40;99.90;;;;;;4133170;28;20046;-76
2021/07/13 08:16:40;;;;;;;10.20;8.63;;;20.50;99.90;;;;;;4133464;28;20149;-76
2021/07/13 08:18:41;;;;;;;12.00;8.85;;;20.50;99.90;;;;;;4134518;28;20038;-76
2021/07/13 08:20:42;;;;;;;13.35;10.07;;;20.50;99.90;;;;;;4133889;28;20163;-75
2021/07/13 08:22:45;;;;;;;15.07;8.95;;;20.50;99.90;;;;;;4131272;28;20046;-76
2021/07/13 08:24:47;;;;;;;10.82;8.82;;;20.60;99.90;;;;;;4129521;28;20042;-75
2021/07/13 08:26:47;;;;;;;11.18;8.32;;;20.60;99.90;;;;;;4130302;28;20090;-76
2021/07/13 08:28:48;;;;;;;11.20;8.50;;;20.60;99.90;;;;;;4134101;28;20045;-76
2021/07/13 08:30:48;;;;;;;10.65;8.80;;;20.70;99.90;;;;;;4131394;28;20026;-76
2021/07/13 08:32:49;;;;;;;13.10;10.35;;;20.70;99.90;;;;;;4134350;28;20025;-76
2021/07/13 08:34:50;;;;;;;12.68;10.40;;;20.70;99.90;;;;;;4135218;28;20041;-75
2021/07/13 08:36:50;;;;;;;18.45;12.63;;;20.70;99.90;;;;;;4134536;28;20033;-75
2021/07/13 08:38:51;;;;;;;13.38;10.73;;;20.70;99.90;;;;;;4132262;28;20037;-76
2021/07/13 08:40:52;;;;;;;16.20;12.15;;;20.70;99.90;;;;;;4132659;28;20041;-76
2021/07/13 08:42:55;;;;;;;13.20;10.50;;;20.70;99.90;;;;;;4134650;28;20446;-76
2021/07/13 08:44:57;;;;;;;15.88;11.23;;;20.70;99.90;;;;;;4134831;28;20033;-76
2021/07/13 08:46:58;;;;;;;16.08;11.38;;;20.80;99.90;;;;;;4137910;28;20029;-77
2021/07/13 08:49:02;;;;;;;16.85;13.02;;;20.80;99.90;;;;;;4136577;28;20794;-76
2021/07/13 08:51:03;;;;;;;14.95;12.35;;;20.80;99.90;;;;;;4136475;28;20382;-77
2021/07/13 08:53:05;;;;;;;15.35;12.02;;;20.80;99.90;;;;;;4137191;28;20061;-76
2021/07/13 08:55:07;;;;;;;22.73;16.52;;;20.80;99.90;;;;;;4137350;28;20038;-76
2021/07/13 08:57:10;;;;;;;24.42;17.77;;;20.90;99.90;;;;;;4134985;28;20045;-76
2021/07/13 08:59:11;;;;;;;22.75;18.00;;;20.80;99.90;;;;;;4137661;28;20044;-76
2021/07/13 09:01:12;;;;;;;21.13;16.05;;;20.80;99.90;;;;;;4137140;28;20480;-76
2021/07/13 09:03:18;;;;;;;29.35;19.67;;;20.80;99.90;;;;;;4138204;28;20046;-76
2021/07/13 09:05:21;;;;;;;24.60;19.00;;;20.70;99.90;;;;;;4135160;28;20026;-76
2021/07/13 09:07:22;;;;;;;24.67;19.27;;;20.70;99.90;;;;;;4134485;28;20037;-76
2021/07/13 09:09:23;;;;;;;23.70;17.45;;;20.70;99.90;;;;;;4135651;28;20363;-76
2021/07/13 09:11:24;;;;;;;27.67;20.63;;;20.80;99.90;;;;;;4133603;28;20400;-75
2021/07/13 09:13:26;;;;;;;22.90;18.50;;;20.80;99.90;;;;;;4133898;28;20038;-76
2021/07/13 09:15:27;;;;;;;21.00;17.42;;;20.80;99.90;;;;;;4139169;28;21225;-76
2021/07/13 09:17:29;;;;;;;24.27;18.48;;;20.80;99.90;;;;;;4136749;28;20066;-76
2021/07/13 09:19:30;;;;;;;26.03;20.43;;;20.80;99.90;;;;;;4136702;28;20037;-76
2021/07/13 09:21:35;;;;;;;30.58;22.70;;;20.80;99.90;;;;;;4134407;28;20121;-76
2021/07/13 09:23:56;;;;;;;20.65;16.83;;;20.90;99.90;;;;;;4134325;28;20573;-76
2021/07/13 09:25:56;;;;;;;25.63;18.33;;;20.90;99.90;;;;;;4135194;28;20038;-76
2021/07/13 09:28:10;;;;;;;21.60;17.58;;;21.00;99.90;;;;;;4135079;28;20146;-76
2021/07/13 09:30:15;;;;;;;24.73;18.65;;;21.10;99.90;;;;;;4137061;28;20088;-76
2021/07/13 09:32:17;;;;;;;22.92;16.38;;;21.00;99.90;;;;;;4132108;28;20368;-76
2021/07/13 09:34:19;;;;;;;25.25;18.65;;;21.10;99.90;;;;;;4136792;28;20029;-76
2021/07/13 09:36:19;;;;;;;19.63;16.83;;;21.10;99.90;;;;;;4135791;28;20069;-76
2021/07/13 09:38:23;;;;;;;27.77;14.85;;;21.20;99.90;;;;;;4139586;28;20525;-76
2021/07/13 09:40:25;;;;;;;19.38;16.08;;;21.20;99.90;;;;;;4135202;28;20030;-76
2021/07/13 09:42:28;;;;;;;17.90;14.50;;;21.30;99.90;;;;;;4135328;28;20030;-76
2021/07/13 09:44:28;;;;;;;;;;;21.30;99.90;;;;;;4138496;28;20040;-77
2021/07/13 09:46:31;;;;;;;18.98;15.32;;;21.30;99.90;;;;;;4135921;28;19917;-76
2021/07/13 09:48:32;;;;;;;19.55;15.13;;;21.40;99.90;;;;;;4129120;28;20069;-77
2021/07/13 09:50:44;;;;;;;19.92;14.80;;;21.40;99.90;;;;;;4137053;28;20281;-77
2021/07/13 09:52:56;;;;;;;18.85;15.82;;;21.40;99.90;;;;;;4115527;28;20046;-76
2021/07/13 09:54:57;;;;;;;;;;;21.40;99.90;;;;;;4134945;28;20112;-76
2021/07/13 09:56:59;;;;;;;20.63;16.30;;;21.30;99.90;;;;;;4136199;28;20330;-76
2021/07/13 09:59:00;;;;;;;22.85;17.65;;;21.30;99.90;;;;;;4136410;28;20049;-76
2021/07/13 10:01:01;;;;;;;20.15;16.27;;;21.30;99.90;;;;;;4137404;28;20056;-76
2021/07/13 10:03:02;;;;;;;22.10;17.45;;;21.20;99.90;;;;;;4136292;28;20287;-76
2021/07/13 10:05:04;;;;;;;17.20;14.57;;;21.10;99.90;;;;;;4134827;28;20054;-76
2021/07/13 10:07:10;;;;;;;16.77;14.07;;;21.10;99.90;;;;;;4133622;28;20049;-76
2021/07/13 10:09:11;;;;;;;18.30;13.18;;;21.20;99.90;;;;;;4135045;28;20261;-76
2021/07/13 10:11:12;;;;;;;18.27;13.93;;;21.20;99.90;;;;;;4134052;28;20046;-76
2021/07/13 10:13:14;;;;;;;14.23;12.15;;;21.20;99.90;;;;;;4131815;28;20041;-76
2021/07/13 10:15:14;;;;;;;17.15;14.05;;;21.30;99.90;;;;;;4133160;28;20042;-76
2021/07/13 10:17:16;;;;;;;17.17;14.50;;;21.30;99.90;;;;;;4121658;28;20101;-76
2021/07/13 10:19:17;;;;;;;17.38;14.70;;;21.30;99.90;;;;;;4136818;28;20542;-76
2021/07/13 10:21:18;;;;;;;17.15;13.35;;;21.30;99.90;;;;;;4124450;28;20061;-76
2021/07/13 10:23:20;;;;;;;18.42;15.30;;;21.30;99.90;;;;;;4132141;28;20041;-76
2021/07/13 10:25:44;;;;;;;16.67;13.10;;;21.30;99.90;;;;;;4132182;28;20386;-77
2021/07/13 10:27:50;;;;;;;16.77;13.68;;;21.30;99.90;;;;;;4137998;28;20093;-77